Mopti, Mali
Current Conditions -  °F | °C
As of 8:46 AM on Saturday 25 Oct 2014 (Local Time) from KQBF Reporting Station
Haze Haze  
Wind Chill: 88°   Ceiling: Unl
Heat Index: 89°   Visibility: 4mi
Dew Point: 64°   Wind: 1mph
Humidity: 46%   Direction: 290°WNW
Pressure: 29.97"   Gusts: NA
Location:  14.49°N, 4.18°W
Report Text: KQBF 250846Z AUTO 29001KT 6000 HZ FEW220 31/18 A2997 RMK AO2 SLP130 TSNO $
Loading
Personal Weather Stations






























Interactive Weather Map
Tropical Storm Tracking
New forecast layout! Learn more

10-Day Weather Forecast

Advertisements
Track Severe Weather on mobile